createdAt,value
2022-10-13T00:01:43.388Z,4.43
2022-10-13T00:06:45.058Z,4.97
2022-10-13T00:11:47.210Z,5.17
2022-10-13T00:16:48.917Z,5.03
2022-10-13T00:21:50.559Z,5.20
2022-10-13T00:26:52.498Z,4.33
2022-10-13T00:31:54.150Z,4.47
2022-10-13T00:36:55.781Z,4.80
2022-10-13T00:41:58.463Z,4.57
2022-10-13T00:47:00.089Z,4.70
2022-10-13T00:52:01.695Z,4.77
2022-10-13T00:57:03.879Z,5.07
2022-10-13T01:02:05.529Z,4.43
2022-10-13T01:07:07.277Z,4.43
2022-10-13T01:12:30.128Z,4.77
2022-10-13T01:18:09.535Z,4.70
2022-10-13T01:23:38.443Z,4.90
2022-10-13T01:28:59.609Z,5.20
2022-10-13T01:34:10.098Z,4.20
2022-10-13T01:39:43.424Z,4.80
2022-10-13T01:44:48.352Z,4.60
2022-10-13T01:49:50.689Z,4.33
2022-10-13T01:54:52.539Z,5.20
2022-10-13T01:59:54.155Z,4.47
2022-10-13T02:05:19.177Z,4.87
2022-10-13T02:10:27.412Z,4.90
2022-10-13T02:15:31.412Z,5.03
2022-10-13T02:20:35.118Z,4.40
2022-10-13T02:25:36.793Z,4.90
2022-10-13T02:30:39.364Z,4.70
2022-10-13T02:35:41.600Z,5.43
2022-10-13T02:40:43.224Z,5.57
2022-10-13T02:45:44.849Z,6.50
2022-10-13T02:50:47.501Z,6.50
2022-10-13T02:55:49.134Z,6.20
2022-10-13T03:00:50.845Z,5.70
2022-10-13T03:05:52.490Z,5.60
2022-10-13T03:10:56.154Z,6.10
2022-10-13T03:15:57.774Z,5.80
2022-10-13T03:21:00.935Z,6.10
2022-10-13T03:26:02.753Z,6.90
2022-10-13T03:31:06.191Z,7.80
2022-10-13T03:36:08.091Z,6.97
2022-10-13T03:41:11.456Z,6.33
2022-10-13T03:46:14.051Z,7.13
2022-10-13T03:51:19.952Z,8.63
2022-10-13T03:56:25.502Z,6.97
2022-10-13T04:01:28.771Z,7.73
2022-10-13T04:06:31.285Z,9.80
2022-10-13T04:11:32.923Z,9.70
2022-10-13T04:16:34.876Z,11.00
2022-10-13T04:21:36.746Z,9.43
2022-10-13T04:26:38.360Z,9.90
2022-10-13T04:31:43.793Z,9.83
2022-10-13T04:36:45.523Z,11.60
2022-10-13T04:41:47.137Z,12.60
2022-10-13T04:46:48.781Z,11.67
2022-10-13T04:51:50.571Z,13.60
2022-10-13T04:56:52.190Z,11.10
2022-10-13T05:01:53.843Z,13.60
2022-10-13T05:07:18.916Z,12.73
2022-10-13T05:12:17.836Z,12.97
2022-10-13T05:17:19.701Z,12.70
2022-10-13T05:22:21.729Z,12.90
2022-10-13T05:27:24.597Z,12.60
2022-10-13T05:32:26.259Z,13.00
2022-10-13T05:37:27.897Z,13.57
2022-10-13T05:42:29.855Z,14.03
2022-10-13T05:47:31.498Z,13.30
2022-10-13T05:52:33.387Z,15.37
2022-10-13T05:57:41.102Z,15.90
2022-10-13T06:02:55.095Z,16.40
2022-10-13T06:07:56.729Z,16.00
2022-10-13T06:12:58.389Z,14.93
2022-10-13T06:18:00.067Z,16.40
2022-10-13T06:23:01.682Z,15.30
2022-10-13T06:28:03.423Z,14.87
2022-10-13T06:33:05.166Z,15.63
2022-10-13T06:38:09.202Z,17.67
2022-10-13T06:43:11.572Z,16.60
2022-10-13T06:48:16.138Z,16.63
2022-10-13T06:53:17.931Z,16.80
2022-10-13T06:58:19.554Z,16.90
2022-10-13T07:03:21.229Z,17.23
2022-10-13T07:08:23.071Z,18.60
2022-10-13T07:13:24.726Z,17.97
2022-10-13T07:18:27.101Z,19.33
2022-10-13T07:23:28.733Z,19.20
2022-10-13T07:28:30.435Z,18.90
2022-10-13T07:33:32.074Z,19.20
2022-10-13T07:38:33.732Z,20.77
2022-10-13T07:43:35.369Z,20.97
2022-10-13T07:48:39.567Z,20.27
2022-10-13T07:53:41.852Z,20.20
2022-10-13T07:58:45.232Z,21.30
2022-10-13T08:03:50.079Z,21.93
2022-10-13T08:08:53.300Z,21.60
2022-10-13T08:13:55.983Z,22.03
2022-10-13T08:18:58.358Z,21.50
2022-10-13T08:23:59.972Z,22.80
2022-10-13T08:29:21.771Z,22.93
2022-10-13T08:34:23.726Z,23.97
2022-10-13T08:39:25.414Z,23.20
2022-10-13T08:50:07.725Z,22.77
2022-10-13T08:55:28.643Z,22.17
2022-10-13T09:00:30.293Z,22.00
2022-10-13T09:05:37.720Z,21.80
2022-10-13T09:10:57.632Z,21.20
2022-10-13T09:16:00.800Z,19.00
2022-10-13T09:21:19.894Z,20.10
2022-10-13T09:26:24.218Z,18.63
2022-10-13T09:31:27.732Z,18.60
2022-10-13T09:36:30.663Z,18.67
2022-10-13T09:41:32.392Z,18.70
2022-10-13T09:46:51.762Z,18.30
2022-10-13T09:52:05.120Z,18.30
2022-10-13T09:57:25.396Z,17.53
2022-10-13T10:02:59.044Z,17.20
2022-10-13T10:08:06.240Z,16.20
2022-10-13T10:13:12.540Z,15.37
2022-10-13T10:18:20.389Z,20.07
2022-10-13T10:23:34.373Z,15.50
2022-10-13T10:28:48.220Z,14.90
2022-10-13T10:34:08.210Z,13.87
2022-10-13T10:39:23.327Z,14.27
2022-10-13T10:44:47.994Z,12.90
2022-10-13T10:49:50.152Z,11.60
2022-10-13T10:54:57.225Z,12.17
2022-10-13T11:00:04.942Z,11.10
2022-10-13T11:05:06.762Z,12.80
2022-10-13T11:10:16.315Z,11.57
2022-10-13T11:15:28.777Z,10.60
2022-10-13T11:20:36.286Z,10.53
2022-10-13T11:25:47.181Z,10.43
2022-10-13T11:30:52.714Z,9.90
2022-10-13T11:35:54.348Z,9.40
2022-10-13T11:41:12.228Z,9.33
2022-10-13T11:46:26.104Z,8.87
2022-10-13T11:51:49.314Z,7.47
2022-10-13T11:56:53.159Z,8.03
2022-10-13T12:01:59.034Z,8.60
2022-10-13T12:07:02.213Z,7.30
2022-10-13T12:12:15.128Z,7.40
2022-10-13T12:17:27.551Z,7.23
2022-10-13T12:22:29.682Z,7.63
2022-10-13T12:27:32.768Z,7.37
2022-10-13T12:32:35.901Z,6.70
2022-10-13T12:37:37.599Z,6.30
2022-10-13T12:42:39.264Z,6.87
2022-10-13T12:47:43.787Z,6.20
2022-10-13T12:52:45.417Z,5.63
2022-10-13T12:57:48.152Z,6.90
2022-10-13T13:03:00.626Z,6.40
2022-10-13T13:08:03.876Z,6.50
2022-10-13T13:13:15.209Z,6.40
2022-10-13T13:18:23.040Z,6.97
2022-10-13T13:23:24.739Z,6.57
2022-10-13T13:28:30.770Z,5.70
2022-10-13T13:33:33.224Z,6.40
2022-10-13T13:38:36.509Z,6.63
2022-10-13T13:43:38.687Z,7.00
2022-10-13T13:48:40.386Z,6.70
2022-10-13T13:53:42.087Z,7.40
2022-10-13T13:58:44.468Z,7.77
2022-10-13T14:03:46.080Z,6.73
2022-10-13T14:08:50.434Z,6.90
2022-10-13T14:13:52.104Z,7.00
2022-10-13T14:19:02.070Z,6.60
2022-10-13T14:24:04.239Z,6.50
2022-10-13T14:29:05.907Z,7.43
2022-10-13T14:34:07.612Z,7.00
2022-10-13T14:39:09.861Z,7.50
2022-10-13T14:44:13.472Z,7.30
2022-10-13T14:49:20.039Z,7.60
2022-10-13T14:54:23.164Z,7.87
2022-10-13T14:59:24.841Z,7.50
2022-10-13T15:04:26.454Z,8.57
2022-10-13T15:09:38.935Z,8.10
2022-10-13T15:14:50.835Z,6.67
2022-10-13T15:19:52.521Z,9.00
2022-10-13T15:24:54.190Z,7.80
2022-10-13T15:29:55.861Z,7.43
2022-10-13T15:34:57.541Z,7.13
2022-10-13T15:40:00.052Z,8.00
2022-10-13T15:45:09.985Z,8.00
2022-10-13T15:50:12.615Z,7.40
2022-10-13T15:55:14.351Z,6.90
2022-10-13T16:00:16.402Z,7.70
2022-10-13T16:05:18.271Z,8.60
2022-10-13T16:10:19.900Z,8.50
2022-10-13T16:15:21.538Z,8.07
2022-10-13T16:20:23.196Z,7.23
2022-10-13T16:25:24.823Z,7.20
2022-10-13T16:30:26.951Z,6.60
2022-10-13T16:35:28.598Z,8.40
2022-10-13T16:40:30.902Z,7.80
2022-10-13T16:45:55.106Z,7.10
2022-10-13T16:50:54.366Z,6.43
2022-10-13T16:55:57.784Z,7.10
2022-10-13T17:01:09.183Z,6.60
2022-10-13T17:06:11.423Z,7.77
2022-10-13T17:11:21.232Z,6.90
2022-10-13T17:16:22.969Z,7.90
2022-10-13T17:21:24.679Z,9.80
2022-10-13T17:26:26.338Z,9.60
2022-10-13T17:31:27.989Z,10.17
2022-10-13T17:36:31.606Z,8.60
2022-10-13T17:41:33.428Z,7.37
2022-10-13T17:46:37.918Z,18.83
2022-10-13T17:51:40.859Z,19.07
2022-10-13T17:56:42.484Z,13.73
2022-10-13T18:01:44.471Z,10.20
2022-10-13T18:06:46.198Z,11.00
2022-10-13T18:11:51.067Z,11.70
2022-10-13T18:16:53.231Z,14.83
2022-10-13T18:21:54.924Z,11.27
2022-10-13T18:26:56.542Z,10.40
2022-10-13T18:31:58.557Z,9.93
2022-10-13T18:37:00.194Z,10.40
2022-10-13T18:42:01.828Z,10.43
2022-10-13T18:47:08.945Z,9.23
2022-10-13T18:52:10.615Z,9.97
2022-10-13T18:57:14.351Z,10.70
2022-10-13T19:02:15.980Z,10.93
2022-10-13T19:07:17.653Z,11.70
2022-10-13T19:12:19.291Z,11.77
2022-10-13T19:17:21.111Z,14.23
2022-10-13T19:22:23.077Z,12.33
2022-10-13T19:27:24.802Z,12.80
2022-10-13T19:32:26.487Z,12.40
2022-10-13T19:37:28.115Z,11.53
2022-10-13T19:42:29.746Z,12.30
2022-10-13T19:47:32.716Z,12.60
2022-10-13T19:52:34.366Z,12.60
2022-10-13T19:57:36.020Z,14.10
2022-10-13T20:02:37.669Z,14.30
2022-10-13T20:07:39.343Z,14.37
2022-10-13T20:12:41.053Z,13.93
2022-10-13T20:17:42.683Z,14.87
2022-10-13T20:22:44.365Z,14.43
2022-10-13T20:27:46.658Z,14.90
2022-10-13T20:32:48.340Z,15.13
2022-10-13T20:37:50.002Z,15.10
2022-10-13T20:42:54.638Z,14.33
2022-10-13T20:47:56.284Z,15.67
2022-10-13T20:52:57.946Z,16.27
2022-10-13T20:57:59.559Z,16.43
2022-10-13T21:03:02.294Z,16.97
2022-10-13T21:08:04.115Z,15.40
2022-10-13T21:13:05.960Z,14.53
2022-10-13T21:18:07.846Z,14.83
2022-10-13T21:23:10.454Z,15.00
2022-10-13T21:28:12.096Z,15.30
2022-10-13T21:33:13.706Z,15.83
2022-10-13T21:38:15.355Z,14.20
2022-10-13T21:43:20.730Z,16.50
2022-10-13T21:48:22.384Z,14.97
2022-10-13T21:53:24.059Z,16.40
2022-10-13T21:58:25.679Z,14.97
2022-10-13T22:03:27.321Z,15.57
2022-10-13T22:08:38.344Z,15.70
2022-10-13T22:13:47.644Z,16.47
2022-10-13T22:18:53.191Z,16.90
2022-10-13T22:23:59.593Z,16.20
2022-10-13T22:29:02.246Z,15.93
2022-10-13T22:34:04.147Z,17.23
2022-10-13T22:39:05.870Z,18.03
2022-10-13T22:44:07.524Z,17.80
2022-10-13T22:49:09.270Z,18.43
2022-10-13T22:54:10.941Z,18.03
2022-10-13T22:59:13.696Z,18.40
2022-10-13T23:04:15.365Z,18.70
2022-10-13T23:09:17.030Z,18.90
2022-10-13T23:14:18.718Z,20.00
2022-10-13T23:19:20.457Z,18.90
2022-10-13T23:24:22.091Z,19.87
2022-10-13T23:29:23.803Z,21.17
2022-10-13T23:34:25.638Z,20.57
2022-10-13T23:39:27.393Z,21.03
2022-10-13T23:44:29.926Z,22.10
2022-10-13T23:49:32.099Z,20.47
2022-10-13T23:54:33.815Z,20.50
2022-10-13T23:59:35.475Z,21.53
